sensor_id;sensor_type;location;lat;lon;timestamp;P1;durP1;ratioP1;P2;durP2;ratioP2
50769;SDS011;36740;48.698;11.472;2022-11-10T00:02:37;10.77;;;6.50;;
50769;SDS011;36740;48.698;11.472;2022-11-10T00:05:22;12.68;;;7.85;;
50769;SDS011;36740;48.698;11.472;2022-11-10T00:08:09;10.50;;;7.45;;
50769;SDS011;36740;48.698;11.472;2022-11-10T00:10:56;10.32;;;6.13;;
50769;SDS011;36740;48.698;11.472;2022-11-10T00:13:42;13.15;;;8.65;;
50769;SDS011;36740;48.698;11.472;2022-11-10T00:16:47;16.20;;;8.77;;
50769;SDS011;36740;48.698;11.472;2022-11-10T00:19:45;16.75;;;9.68;;
50769;SDS011;36740;48.698;11.472;2022-11-10T00:22:31;12.27;;;7.50;;
50769;SDS011;36740;48.698;11.472;2022-11-10T00:25:18;10.45;;;6.53;;
50769;SDS011;36740;48.698;11.472;2022-11-10T00:28:04;12.35;;;6.63;;
50769;SDS011;36740;48.698;11.472;2022-11-10T00:30:50;13.75;;;7.88;;
50769;SDS011;36740;48.698;11.472;2022-11-10T00:33:36;12.82;;;7.43;;
50769;SDS011;36740;48.698;11.472;2022-11-10T00:36:23;11.40;;;5.97;;
50769;SDS011;36740;48.698;11.472;2022-11-10T00:39:09;10.18;;;7.18;;
50769;SDS011;36740;48.698;11.472;2022-11-10T00:41:55;11.00;;;7.53;;
50769;SDS011;36740;48.698;11.472;2022-11-10T00:44:42;14.45;;;6.72;;
50769;SDS011;36740;48.698;11.472;2022-11-10T00:47:27;11.55;;;7.72;;
50769;SDS011;36740;48.698;11.472;2022-11-10T00:53:17;10.07;;;5.32;;
50769;SDS011;36740;48.698;11.472;2022-11-10T00:56:03;7.68;;;3.88;;
50769;SDS011;36740;48.698;11.472;2022-11-10T00:58:49;5.72;;;3.20;;
50769;SDS011;36740;48.698;11.472;2022-11-10T01:01:35;5.18;;;4.03;;
50769;SDS011;36740;48.698;11.472;2022-11-10T01:04:21;7.53;;;3.45;;
50769;SDS011;36740;48.698;11.472;2022-11-10T01:07:07;13.27;;;3.20;;
50769;SDS011;36740;48.698;11.472;2022-11-10T01:09:53;3.00;;;1.70;;
50769;SDS011;36740;48.698;11.472;2022-11-10T01:12:39;3.35;;;1.90;;
50769;SDS011;36740;48.698;11.472;2022-11-10T01:15:25;8.75;;;3.13;;
50769;SDS011;36740;48.698;11.472;2022-11-10T01:18:10;2.88;;;2.22;;
50769;SDS011;36740;48.698;11.472;2022-11-10T01:20:56;3.42;;;2.42;;
50769;SDS011;36740;48.698;11.472;2022-11-10T01:23:42;5.65;;;3.08;;
50769;SDS011;36740;48.698;11.472;2022-11-10T01:26:28;5.88;;;3.38;;
50769;SDS011;36740;48.698;11.472;2022-11-10T01:29:13;7.32;;;2.63;;
50769;SDS011;36740;48.698;11.472;2022-11-10T01:31:59;8.68;;;4.38;;
50769;SDS011;36740;48.698;11.472;2022-11-10T01:34:45;4.50;;;2.65;;
50769;SDS011;36740;48.698;11.472;2022-11-10T01:37:31;2.97;;;2.67;;
50769;SDS011;36740;48.698;11.472;2022-11-10T01:40:17;4.60;;;3.42;;
50769;SDS011;36740;48.698;11.472;2022-11-10T01:43:03;5.72;;;2.90;;
50769;SDS011;36740;48.698;11.472;2022-11-10T01:49:00;3.92;;;2.83;;
50769;SDS011;36740;48.698;11.472;2022-11-10T01:54:43;4.53;;;2.92;;
50769;SDS011;36740;48.698;11.472;2022-11-10T01:57:31;4.25;;;2.80;;
50769;SDS011;36740;48.698;11.472;2022-11-10T02:00:18;3.90;;;2.63;;
50769;SDS011;36740;48.698;11.472;2022-11-10T02:06:13;4.82;;;2.80;;
50769;SDS011;36740;48.698;11.472;2022-11-10T02:09:01;6.68;;;3.92;;
50769;SDS011;36740;48.698;11.472;2022-11-10T02:11:47;7.28;;;4.28;;
50769;SDS011;36740;48.698;11.472;2022-11-10T02:14:37;10.50;;;4.85;;
50769;SDS011;36740;48.698;11.472;2022-11-10T02:17:23;5.78;;;3.42;;
50769;SDS011;36740;48.698;11.472;2022-11-10T02:20:10;4.45;;;3.17;;
50769;SDS011;36740;48.698;11.472;2022-11-10T02:22:57;7.13;;;3.97;;
50769;SDS011;36740;48.698;11.472;2022-11-10T02:25:43;5.85;;;3.22;;
50769;SDS011;36740;48.698;11.472;2022-11-10T02:28:31;8.93;;;3.80;;
50769;SDS011;36740;48.698;11.472;2022-11-10T02:31:18;8.68;;;3.95;;
50769;SDS011;36740;48.698;11.472;2022-11-10T02:34:04;5.88;;;3.15;;
50769;SDS011;36740;48.698;11.472;2022-11-10T02:36:50;6.70;;;3.60;;
50769;SDS011;36740;48.698;11.472;2022-11-10T02:39:36;5.00;;;3.28;;
50769;SDS011;36740;48.698;11.472;2022-11-10T02:42:22;3.88;;;3.13;;
50769;SDS011;36740;48.698;11.472;2022-11-10T02:45:11;5.47;;;3.38;;
50769;SDS011;36740;48.698;11.472;2022-11-10T02:47:56;4.47;;;2.33;;
50769;SDS011;36740;48.698;11.472;2022-11-10T02:50:42;3.33;;;2.55;;
50769;SDS011;36740;48.698;11.472;2022-11-10T02:53:29;6.57;;;3.03;;
50769;SDS011;36740;48.698;11.472;2022-11-10T02:56:15;6.47;;;2.55;;
50769;SDS011;36740;48.698;11.472;2022-11-10T02:59:01;3.35;;;1.92;;
50769;SDS011;36740;48.698;11.472;2022-11-10T03:01:47;3.83;;;2.67;;
50769;SDS011;36740;48.698;11.472;2022-11-10T03:04:33;3.80;;;2.53;;
50769;SDS011;36740;48.698;11.472;2022-11-10T03:07:19;2.53;;;2.30;;
50769;SDS011;36740;48.698;11.472;2022-11-10T03:10:05;4.18;;;2.22;;
50769;SDS011;36740;48.698;11.472;2022-11-10T03:12:55;3.45;;;2.17;;
50769;SDS011;36740;48.698;11.472;2022-11-10T03:15:42;3.45;;;2.20;;
50769;SDS011;36740;48.698;11.472;2022-11-10T03:18:28;6.25;;;1.88;;
50769;SDS011;36740;48.698;11.472;2022-11-10T03:21:14;4.93;;;2.65;;
50769;SDS011;36740;48.698;11.472;2022-11-10T03:24:00;4.75;;;1.98;;
50769;SDS011;36740;48.698;11.472;2022-11-10T03:26:45;4.95;;;2.03;;
50769;SDS011;36740;48.698;11.472;2022-11-10T03:29:31;5.47;;;3.22;;
50769;SDS011;36740;48.698;11.472;2022-11-10T03:32:17;2.67;;;2.28;;
50769;SDS011;36740;48.698;11.472;2022-11-10T03:35:04;2.30;;;2.10;;
50769;SDS011;36740;48.698;11.472;2022-11-10T03:37:50;4.47;;;2.53;;
50769;SDS011;36740;48.698;11.472;2022-11-10T03:40:36;4.13;;;3.00;;
50769;SDS011;36740;48.698;11.472;2022-11-10T03:43:21;3.72;;;2.72;;
50769;SDS011;36740;48.698;11.472;2022-11-10T03:46:07;9.35;;;4.47;;
50769;SDS011;36740;48.698;11.472;2022-11-10T03:48:53;5.05;;;3.47;;
50769;SDS011;36740;48.698;11.472;2022-11-10T03:51:39;4.43;;;3.17;;
50769;SDS011;36740;48.698;11.472;2022-11-10T03:54:25;13.43;;;3.08;;
50769;SDS011;36740;48.698;11.472;2022-11-10T03:57:11;4.55;;;3.20;;
50769;SDS011;36740;48.698;11.472;2022-11-10T03:59:56;4.60;;;3.17;;
50769;SDS011;36740;48.698;11.472;2022-11-10T04:02:42;18.88;;;3.35;;
50769;SDS011;36740;48.698;11.472;2022-11-10T04:05:28;5.40;;;3.20;;
50769;SDS011;36740;48.698;11.472;2022-11-10T04:08:32;2.90;;;2.45;;
50769;SDS011;36740;48.698;11.472;2022-11-10T04:11:36;5.80;;;2.72;;
50769;SDS011;36740;48.698;11.472;2022-11-10T04:14:41;6.43;;;3.60;;
50769;SDS011;36740;48.698;11.472;2022-11-10T04:17:48;7.70;;;3.17;;
50769;SDS011;36740;48.698;11.472;2022-11-10T04:20:35;4.93;;;3.07;;
50769;SDS011;36740;48.698;11.472;2022-11-10T04:23:22;7.38;;;3.45;;
50769;SDS011;36740;48.698;11.472;2022-11-10T04:26:12;3.63;;;3.20;;
50769;SDS011;36740;48.698;11.472;2022-11-10T04:29:15;5.18;;;3.58;;
50769;SDS011;36740;48.698;11.472;2022-11-10T04:32:02;6.95;;;4.45;;
50769;SDS011;36740;48.698;11.472;2022-11-10T04:34:48;16.50;;;4.38;;
50769;SDS011;36740;48.698;11.472;2022-11-10T04:37:34;5.82;;;3.63;;
50769;SDS011;36740;48.698;11.472;2022-11-10T04:40:20;6.10;;;3.30;;
50769;SDS011;36740;48.698;11.472;2022-11-10T04:43:06;6.88;;;3.88;;
50769;SDS011;36740;48.698;11.472;2022-11-10T04:45:52;5.35;;;3.40;;
50769;SDS011;36740;48.698;11.472;2022-11-10T04:48:38;7.05;;;3.15;;
50769;SDS011;36740;48.698;11.472;2022-11-10T04:51:25;3.92;;;3.42;;
50769;SDS011;36740;48.698;11.472;2022-11-10T04:54:13;6.68;;;4.75;;
50769;SDS011;36740;48.698;11.472;2022-11-10T04:56:59;6.28;;;4.88;;
50769;SDS011;36740;48.698;11.472;2022-11-10T04:59:45;8.02;;;4.60;;
50769;SDS011;36740;48.698;11.472;2022-11-10T05:02:31;7.32;;;4.25;;
50769;SDS011;36740;48.698;11.472;2022-11-10T05:05:17;7.32;;;3.35;;
50769;SDS011;36740;48.698;11.472;2022-11-10T05:08:03;3.90;;;3.45;;
50769;SDS011;36740;48.698;11.472;2022-11-10T05:10:50;7.50;;;3.85;;
50769;SDS011;36740;48.698;11.472;2022-11-10T05:13:36;5.32;;;2.80;;
50769;SDS011;36740;48.698;11.472;2022-11-10T05:16:22;6.25;;;4.00;;
50769;SDS011;36740;48.698;11.472;2022-11-10T05:19:07;3.08;;;2.25;;
50769;SDS011;36740;48.698;11.472;2022-11-10T05:21:53;3.85;;;3.13;;
50769;SDS011;36740;48.698;11.472;2022-11-10T05:24:39;7.07;;;3.55;;
50769;SDS011;36740;48.698;11.472;2022-11-10T05:27:25;5.88;;;3.47;;
50769;SDS011;36740;48.698;11.472;2022-11-10T05:30:11;8.73;;;4.07;;
50769;SDS011;36740;48.698;11.472;2022-11-10T05:32:57;4.57;;;2.97;;
50769;SDS011;36740;48.698;11.472;2022-11-10T05:35:42;7.63;;;4.63;;
50769;SDS011;36740;48.698;11.472;2022-11-10T05:38:28;6.75;;;3.42;;
50769;SDS011;36740;48.698;11.472;2022-11-10T05:41:14;8.70;;;4.38;;
50769;SDS011;36740;48.698;11.472;2022-11-10T05:44:00;6.70;;;3.80;;
50769;SDS011;36740;48.698;11.472;2022-11-10T05:46:46;5.97;;;3.42;;
50769;SDS011;36740;48.698;11.472;2022-11-10T05:49:32;10.48;;;4.20;;
50769;SDS011;36740;48.698;11.472;2022-11-10T05:52:18;6.40;;;4.35;;
50769;SDS011;36740;48.698;11.472;2022-11-10T05:55:04;7.32;;;3.63;;
50769;SDS011;36740;48.698;11.472;2022-11-10T05:57:50;7.35;;;4.07;;
50769;SDS011;36740;48.698;11.472;2022-11-10T06:00:36;8.73;;;4.28;;
50769;SDS011;36740;48.698;11.472;2022-11-10T06:03:22;5.07;;;3.00;;
50769;SDS011;36740;48.698;11.472;2022-11-10T06:06:08;8.20;;;3.80;;
50769;SDS011;36740;48.698;11.472;2022-11-10T06:08:54;5.95;;;3.45;;
50769;SDS011;36740;48.698;11.472;2022-11-10T06:11:42;6.47;;;4.20;;
50769;SDS011;36740;48.698;11.472;2022-11-10T06:14:27;11.80;;;4.13;;
50769;SDS011;36740;48.698;11.472;2022-11-10T06:17:13;6.97;;;4.65;;
50769;SDS011;36740;48.698;11.472;2022-11-10T06:19:59;8.15;;;4.05;;
50769;SDS011;36740;48.698;11.472;2022-11-10T06:23:04;6.03;;;4.22;;
50769;SDS011;36740;48.698;11.472;2022-11-10T06:25:57;10.57;;;5.13;;
50769;SDS011;36740;48.698;11.472;2022-11-10T06:28:42;6.85;;;4.15;;
50769;SDS011;36740;48.698;11.472;2022-11-10T06:31:28;8.10;;;4.05;;
50769;SDS011;36740;48.698;11.472;2022-11-10T06:34:14;10.90;;;4.07;;
50769;SDS011;36740;48.698;11.472;2022-11-10T06:37:00;9.20;;;3.20;;
50769;SDS011;36740;48.698;11.472;2022-11-10T06:39:45;7.68;;;4.07;;
50769;SDS011;36740;48.698;11.472;2022-11-10T06:42:32;5.03;;;3.95;;
50769;SDS011;36740;48.698;11.472;2022-11-10T06:45:18;9.27;;;4.65;;
50769;SDS011;36740;48.698;11.472;2022-11-10T06:48:05;7.32;;;4.78;;
50769;SDS011;36740;48.698;11.472;2022-11-10T06:50:53;15.27;;;5.53;;
50769;SDS011;36740;48.698;11.472;2022-11-10T06:53:40;7.05;;;4.22;;
50769;SDS011;36740;48.698;11.472;2022-11-10T06:56:26;9.45;;;4.95;;
50769;SDS011;36740;48.698;11.472;2022-11-10T06:59:12;6.85;;;3.78;;
50769;SDS011;36740;48.698;11.472;2022-11-10T07:01:57;10.02;;;5.38;;
50769;SDS011;36740;48.698;11.472;2022-11-10T07:04:43;7.78;;;4.82;;
50769;SDS011;36740;48.698;11.472;2022-11-10T07:07:29;10.77;;;5.22;;
50769;SDS011;36740;48.698;11.472;2022-11-10T07:10:15;11.85;;;6.45;;
50769;SDS011;36740;48.698;11.472;2022-11-10T07:13:02;7.25;;;5.47;;
50769;SDS011;36740;48.698;11.472;2022-11-10T07:15:49;6.53;;;4.55;;
50769;SDS011;36740;48.698;11.472;2022-11-10T07:18:35;5.38;;;3.40;;
50769;SDS011;36740;48.698;11.472;2022-11-10T07:21:21;9.20;;;3.38;;
50769;SDS011;36740;48.698;11.472;2022-11-10T07:24:07;17.02;;;7.00;;
50769;SDS011;36740;48.698;11.472;2022-11-10T07:26:53;11.30;;;6.00;;
50769;SDS011;36740;48.698;11.472;2022-11-10T07:29:39;8.85;;;4.47;;
50769;SDS011;36740;48.698;11.472;2022-11-10T07:32:24;10.15;;;6.53;;
50769;SDS011;36740;48.698;11.472;2022-11-10T07:35:10;7.78;;;5.28;;
50769;SDS011;36740;48.698;11.472;2022-11-10T07:37:56;4.85;;;3.20;;
50769;SDS011;36740;48.698;11.472;2022-11-10T07:40:45;7.25;;;3.22;;
50769;SDS011;36740;48.698;11.472;2022-11-10T07:43:31;6.13;;;3.47;;
50769;SDS011;36740;48.698;11.472;2022-11-10T07:46:17;10.45;;;4.00;;
50769;SDS011;36740;48.698;11.472;2022-11-10T07:49:02;8.23;;;3.60;;
50769;SDS011;36740;48.698;11.472;2022-11-10T07:51:48;4.55;;;3.55;;
50769;SDS011;36740;48.698;11.472;2022-11-10T07:54:34;6.55;;;3.95;;
50769;SDS011;36740;48.698;11.472;2022-11-10T07:57:20;5.60;;;3.22;;
50769;SDS011;36740;48.698;11.472;2022-11-10T08:00:06;6.07;;;3.80;;
50769;SDS011;36740;48.698;11.472;2022-11-10T08:02:52;9.88;;;3.92;;
50769;SDS011;36740;48.698;11.472;2022-11-10T08:05:38;4.43;;;3.20;;
50769;SDS011;36740;48.698;11.472;2022-11-10T08:08:24;3.42;;;2.22;;
50769;SDS011;36740;48.698;11.472;2022-11-10T08:11:10;3.97;;;2.88;;
50769;SDS011;36740;48.698;11.472;2022-11-10T08:13:55;4.03;;;2.65;;
50769;SDS011;36740;48.698;11.472;2022-11-10T08:16:41;9.85;;;2.75;;
50769;SDS011;36740;48.698;11.472;2022-11-10T08:19:27;4.47;;;3.50;;
50769;SDS011;36740;48.698;11.472;2022-11-10T08:22:13;8.98;;;3.90;;
50769;SDS011;36740;48.698;11.472;2022-11-10T08:24:59;5.18;;;2.25;;
50769;SDS011;36740;48.698;11.472;2022-11-10T08:27:44;7.55;;;3.65;;
50769;SDS011;36740;48.698;11.472;2022-11-10T08:30:30;12.55;;;2.28;;
50769;SDS011;36740;48.698;11.472;2022-11-10T08:33:18;6.72;;;2.47;;
50769;SDS011;36740;48.698;11.472;2022-11-10T08:36:05;5.80;;;3.10;;
50769;SDS011;36740;48.698;11.472;2022-11-10T08:38:51;6.88;;;3.42;;
50769;SDS011;36740;48.698;11.472;2022-11-10T08:41:37;5.10;;;2.45;;
50769;SDS011;36740;48.698;11.472;2022-11-10T08:44:22;7.57;;;3.60;;
50769;SDS011;36740;48.698;11.472;2022-11-10T08:47:08;2.40;;;2.15;;
50769;SDS011;36740;48.698;11.472;2022-11-10T08:49:54;3.60;;;2.83;;
50769;SDS011;36740;48.698;11.472;2022-11-10T08:52:40;3.35;;;2.17;;
50769;SDS011;36740;48.698;11.472;2022-11-10T08:55:25;5.70;;;3.35;;
50769;SDS011;36740;48.698;11.472;2022-11-10T08:58:12;5.28;;;1.92;;
50769;SDS011;36740;48.698;11.472;2022-11-10T09:01:00;6.57;;;2.50;;
50769;SDS011;36740;48.698;11.472;2022-11-10T09:03:46;5.95;;;2.55;;
50769;SDS011;36740;48.698;11.472;2022-11-10T09:06:32;5.60;;;3.00;;
50769;SDS011;36740;48.698;11.472;2022-11-10T09:09:18;4.40;;;2.75;;
50769;SDS011;36740;48.698;11.472;2022-11-10T09:12:04;5.13;;;3.78;;
50769;SDS011;36740;48.698;11.472;2022-11-10T09:14:50;2.95;;;2.22;;
50769;SDS011;36740;48.698;11.472;2022-11-10T09:17:36;8.43;;;3.00;;
50769;SDS011;36740;48.698;11.472;2022-11-10T09:20:23;7.47;;;3.25;;
50769;SDS011;36740;48.698;11.472;2022-11-10T09:23:10;4.78;;;3.13;;
50769;SDS011;36740;48.698;11.472;2022-11-10T09:25:58;14.18;;;7.85;;
50769;SDS011;36740;48.698;11.472;2022-11-10T09:28:43;23.63;;;12.70;;
50769;SDS011;36740;48.698;11.472;2022-11-10T09:31:30;12.55;;;4.88;;
50769;SDS011;36740;48.698;11.472;2022-11-10T09:34:16;16.33;;;8.45;;
50769;SDS011;36740;48.698;11.472;2022-11-10T09:37:01;12.48;;;7.63;;
50769;SDS011;36740;48.698;11.472;2022-11-10T09:39:47;7.22;;;4.20;;
50769;SDS011;36740;48.698;11.472;2022-11-10T09:42:35;4.80;;;2.42;;
50769;SDS011;36740;48.698;11.472;2022-11-10T09:45:24;6.73;;;3.77;;
50769;SDS011;36740;48.698;11.472;2022-11-10T09:51:14;6.85;;;3.67;;
50769;SDS011;36740;48.698;11.472;2022-11-10T09:57:37;4.88;;;3.17;;
50769;SDS011;36740;48.698;11.472;2022-11-10T10:00:24;6.32;;;3.75;;
50769;SDS011;36740;48.698;11.472;2022-11-10T10:03:11;10.60;;;2.90;;
50769;SDS011;36740;48.698;11.472;2022-11-10T10:19:06;3.20;;;2.83;;
50769;SDS011;36740;48.698;11.472;2022-11-10T10:25:22;2.17;;;1.98;;
50769;SDS011;36740;48.698;11.472;2022-11-10T10:28:25;4.32;;;2.67;;
50769;SDS011;36740;48.698;11.472;2022-11-10T10:34:26;4.07;;;2.30;;
50769;SDS011;36740;48.698;11.472;2022-11-10T10:37:24;3.42;;;1.88;;
50769;SDS011;36740;48.698;11.472;2022-11-10T10:43:09;5.07;;;2.65;;
50769;SDS011;36740;48.698;11.472;2022-11-10T10:46:04;3.42;;;2.15;;
50769;SDS011;36740;48.698;11.472;2022-11-10T10:52:11;7.78;;;2.70;;
50769;SDS011;36740;48.698;11.472;2022-11-10T10:54:59;3.30;;;2.33;;
50769;SDS011;36740;48.698;11.472;2022-11-10T10:57:50;10.40;;;2.55;;
50769;SDS011;36740;48.698;11.472;2022-11-10T11:00:45;2.55;;;2.10;;
50769;SDS011;36740;48.698;11.472;2022-11-10T11:03:45;4.90;;;2.60;;
50769;SDS011;36740;48.698;11.472;2022-11-10T11:06:35;2.53;;;1.35;;
50769;SDS011;36740;48.698;11.472;2022-11-10T11:09:22;2.25;;;1.90;;
50769;SDS011;36740;48.698;11.472;2022-11-10T11:12:12;4.50;;;1.80;;
50769;SDS011;36740;48.698;11.472;2022-11-10T11:18:25;3.75;;;2.40;;
50769;SDS011;36740;48.698;11.472;2022-11-10T11:24:33;4.15;;;2.15;;
50769;SDS011;36740;48.698;11.472;2022-11-10T11:27:31;7.20;;;2.45;;
50769;SDS011;36740;48.698;11.472;2022-11-10T11:30:21;4.15;;;2.17;;
50769;SDS011;36740;48.698;11.472;2022-11-10T12:00:16;1.48;;;1.38;;
50769;SDS011;36740;48.698;11.472;2022-11-10T12:06:14;2.53;;;1.48;;
50769;SDS011;36740;48.698;11.472;2022-11-10T12:15:28;5.18;;;2.58;;
50769;SDS011;36740;48.698;11.472;2022-11-10T12:18:28;4.50;;;2.17;;
50769;SDS011;36740;48.698;11.472;2022-11-10T12:21:28;3.13;;;1.60;;
50769;SDS011;36740;48.698;11.472;2022-11-10T12:27:44;3.45;;;2.90;;
50769;SDS011;36740;48.698;11.472;2022-11-10T12:30:37;1.80;;;1.70;;
50769;SDS011;36740;48.698;11.472;2022-11-10T12:33:42;3.72;;;2.00;;
50769;SDS011;36740;48.698;11.472;2022-11-10T12:36:39;5.05;;;2.25;;
50769;SDS011;36740;48.698;11.472;2022-11-10T12:39:36;6.15;;;2.75;;
50769;SDS011;36740;48.698;11.472;2022-11-10T12:42:28;3.15;;;2.00;;
50769;SDS011;36740;48.698;11.472;2022-11-10T12:48:26;5.57;;;2.35;;
50769;SDS011;36740;48.698;11.472;2022-11-10T12:51:29;10.00;;;1.83;;
50769;SDS011;36740;48.698;11.472;2022-11-10T12:54:26;2.17;;;1.48;;
50769;SDS011;36740;48.698;11.472;2022-11-10T12:57:13;5.68;;;1.98;;
50769;SDS011;36740;48.698;11.472;2022-11-10T13:03:14;2.63;;;1.45;;
50769;SDS011;36740;48.698;11.472;2022-11-10T13:06:29;4.45;;;1.98;;
50769;SDS011;36740;48.698;11.472;2022-11-10T13:09:30;4.55;;;2.22;;
50769;SDS011;36740;48.698;11.472;2022-11-10T13:12:19;6.68;;;2.72;;
50769;SDS011;36740;48.698;11.472;2022-11-10T13:18:21;4.40;;;2.25;;
50769;SDS011;36740;48.698;11.472;2022-11-10T13:24:36;3.78;;;1.40;;
50769;SDS011;36740;48.698;11.472;2022-11-10T13:30:36;4.57;;;1.35;;
50769;SDS011;36740;48.698;11.472;2022-11-10T13:33:31;2.13;;;1.20;;
50769;SDS011;36740;48.698;11.472;2022-11-10T13:36:38;3.95;;;1.42;;
50769;SDS011;36740;48.698;11.472;2022-11-10T13:39:26;2.67;;;1.70;;
50769;SDS011;36740;48.698;11.472;2022-11-10T13:42:16;2.25;;;1.15;;
50769;SDS011;36740;48.698;11.472;2022-11-10T13:48:31;1.83;;;1.30;;
50769;SDS011;36740;48.698;11.472;2022-11-10T13:51:40;5.88;;;1.92;;
50769;SDS011;36740;48.698;11.472;2022-11-10T13:55:06;3.72;;;1.60;;
50769;SDS011;36740;48.698;11.472;2022-11-10T13:58:26;3.97;;;1.65;;
50769;SDS011;36740;48.698;11.472;2022-11-10T14:04:01;2.30;;;1.63;;
50769;SDS011;36740;48.698;11.472;2022-11-10T14:06:51;7.22;;;1.63;;
50769;SDS011;36740;48.698;11.472;2022-11-10T14:09:47;4.53;;;1.65;;
50769;SDS011;36740;48.698;11.472;2022-11-10T14:12:45;3.80;;;1.80;;
50769;SDS011;36740;48.698;11.472;2022-11-10T14:15:39;7.53;;;1.65;;
50769;SDS011;36740;48.698;11.472;2022-11-10T14:18:37;1.42;;;1.33;;
50769;SDS011;36740;48.698;11.472;2022-11-10T14:21:59;6.32;;;1.40;;
50769;SDS011;36740;48.698;11.472;2022-11-10T14:24:59;5.43;;;2.72;;
50769;SDS011;36740;48.698;11.472;2022-11-10T14:27:50;3.45;;;2.25;;
50769;SDS011;36740;48.698;11.472;2022-11-10T14:30:35;13.27;;;5.65;;
50769;SDS011;36740;48.698;11.472;2022-11-10T14:33:21;7.10;;;2.50;;
50769;SDS011;36740;48.698;11.472;2022-11-10T14:36:10;4.15;;;1.70;;
50769;SDS011;36740;48.698;11.472;2022-11-10T14:38:58;7.45;;;1.52;;
50769;SDS011;36740;48.698;11.472;2022-11-10T14:41:46;1.48;;;1.38;;
50769;SDS011;36740;48.698;11.472;2022-11-10T14:44:33;1.30;;;1.05;;
50769;SDS011;36740;48.698;11.472;2022-11-10T14:53:02;4.83;;;1.67;;
50769;SDS011;36740;48.698;11.472;2022-11-10T14:55:52;6.45;;;2.55;;
50769;SDS011;36740;48.698;11.472;2022-11-10T14:58:38;6.40;;;2.85;;
50769;SDS011;36740;48.698;11.472;2022-11-10T15:01:27;6.15;;;2.55;;
50769;SDS011;36740;48.698;11.472;2022-11-10T15:04:28;4.97;;;1.58;;
50769;SDS011;36740;48.698;11.472;2022-11-10T15:07:17;2.72;;;1.45;;
50769;SDS011;36740;48.698;11.472;2022-11-10T15:10:05;3.80;;;1.80;;
50769;SDS011;36740;48.698;11.472;2022-11-10T15:13:44;5.32;;;2.38;;
50769;SDS011;36740;48.698;11.472;2022-11-10T15:16:23;5.75;;;3.55;;
50769;SDS011;36740;48.698;11.472;2022-11-10T15:22:14;17.13;;;7.55;;
50769;SDS011;36740;48.698;11.472;2022-11-10T15:25:22;14.90;;;7.28;;
50769;SDS011;36740;48.698;11.472;2022-11-10T15:33:45;15.10;;;9.90;;
50769;SDS011;36740;48.698;11.472;2022-11-10T15:36:34;12.70;;;8.10;;
50769;SDS011;36740;48.698;11.472;2022-11-10T15:42:14;4.78;;;3.05;;
50769;SDS011;36740;48.698;11.472;2022-11-10T15:45:01;8.45;;;4.95;;
50769;SDS011;36740;48.698;11.472;2022-11-10T15:47:47;12.90;;;6.07;;
50769;SDS011;36740;48.698;11.472;2022-11-10T15:50:33;3.40;;;1.90;;
50769;SDS011;36740;48.698;11.472;2022-11-10T15:53:20;5.07;;;2.45;;
50769;SDS011;36740;48.698;11.472;2022-11-10T15:56:15;2.95;;;2.42;;
50769;SDS011;36740;48.698;11.472;2022-11-10T15:59:02;2.78;;;1.95;;
50769;SDS011;36740;48.698;11.472;2022-11-10T16:01:49;11.77;;;7.68;;
50769;SDS011;36740;48.698;11.472;2022-11-10T16:04:37;9.90;;;3.92;;
50769;SDS011;36740;48.698;11.472;2022-11-10T16:07:23;7.97;;;4.38;;
50769;SDS011;36740;48.698;11.472;2022-11-10T16:10:08;14.32;;;5.07;;
50769;SDS011;36740;48.698;11.472;2022-11-10T16:12:54;12.60;;;6.03;;
50769;SDS011;36740;48.698;11.472;2022-11-10T16:15:40;12.40;;;4.57;;
50769;SDS011;36740;48.698;11.472;2022-11-10T16:18:28;10.77;;;6.38;;
50769;SDS011;36740;48.698;11.472;2022-11-10T16:21:18;15.68;;;4.57;;
50769;SDS011;36740;48.698;11.472;2022-11-10T16:24:06;8.30;;;4.10;;
50769;SDS011;36740;48.698;11.472;2022-11-10T16:27:02;16.00;;;10.82;;
50769;SDS011;36740;48.698;11.472;2022-11-10T16:29:50;17.20;;;10.30;;
50769;SDS011;36740;48.698;11.472;2022-11-10T16:32:35;7.63;;;3.88;;
50769;SDS011;36740;48.698;11.472;2022-11-10T16:35:21;10.20;;;6.30;;
50769;SDS011;36740;48.698;11.472;2022-11-10T16:38:28;31.65;;;10.18;;
50769;SDS011;36740;48.698;11.472;2022-11-10T16:41:14;14.52;;;6.72;;
50769;SDS011;36740;48.698;11.472;2022-11-10T16:44:00;12.32;;;5.15;;
50769;SDS011;36740;48.698;11.472;2022-11-10T16:46:47;12.32;;;4.93;;
50769;SDS011;36740;48.698;11.472;2022-11-10T16:49:40;7.95;;;4.05;;
50769;SDS011;36740;48.698;11.472;2022-11-10T16:52:28;7.22;;;3.53;;
50769;SDS011;36740;48.698;11.472;2022-11-10T16:55:14;8.52;;;5.18;;
50769;SDS011;36740;48.698;11.472;2022-11-10T16:58:00;15.70;;;9.65;;
50769;SDS011;36740;48.698;11.472;2022-11-10T17:00:46;18.75;;;8.82;;
50769;SDS011;36740;48.698;11.472;2022-11-10T17:03:36;21.10;;;11.77;;
50769;SDS011;36740;48.698;11.472;2022-11-10T17:06:27;17.48;;;10.68;;
50769;SDS011;36740;48.698;11.472;2022-11-10T17:09:18;11.77;;;6.18;;
50769;SDS011;36740;48.698;11.472;2022-11-10T17:12:11;8.88;;;5.50;;
50769;SDS011;36740;48.698;11.472;2022-11-10T17:14:57;10.07;;;4.80;;
50769;SDS011;36740;48.698;11.472;2022-11-10T17:17:44;5.43;;;4.05;;
50769;SDS011;36740;48.698;11.472;2022-11-10T17:20:33;8.43;;;3.70;;
50769;SDS011;36740;48.698;11.472;2022-11-10T17:23:22;8.63;;;3.60;;
50769;SDS011;36740;48.698;11.472;2022-11-10T17:26:10;4.75;;;2.22;;
50769;SDS011;36740;48.698;11.472;2022-11-10T17:28:58;6.97;;;3.75;;
50769;SDS011;36740;48.698;11.472;2022-11-10T17:31:44;11.27;;;3.60;;
50769;SDS011;36740;48.698;11.472;2022-11-10T17:34:30;5.18;;;3.42;;
50769;SDS011;36740;48.698;11.472;2022-11-10T17:37:16;8.38;;;4.30;;
50769;SDS011;36740;48.698;11.472;2022-11-10T17:40:09;6.10;;;3.67;;
50769;SDS011;36740;48.698;11.472;2022-11-10T17:42:56;6.43;;;3.72;;
50769;SDS011;36740;48.698;11.472;2022-11-10T17:45:44;13.35;;;6.15;;
50769;SDS011;36740;48.698;11.472;2022-11-10T17:48:30;8.00;;;4.35;;
50769;SDS011;36740;48.698;11.472;2022-11-10T17:51:17;9.23;;;4.00;;
50769;SDS011;36740;48.698;11.472;2022-11-10T17:54:04;11.13;;;4.95;;
50769;SDS011;36740;48.698;11.472;2022-11-10T17:56:55;14.68;;;6.20;;
50769;SDS011;36740;48.698;11.472;2022-11-10T17:59:41;7.40;;;5.30;;
50769;SDS011;36740;48.698;11.472;2022-11-10T18:02:26;9.77;;;3.80;;
50769;SDS011;36740;48.698;11.472;2022-11-10T18:05:13;10.50;;;6.07;;
50769;SDS011;36740;48.698;11.472;2022-11-10T18:08:01;11.23;;;4.07;;
50769;SDS011;36740;48.698;11.472;2022-11-10T18:10:48;7.20;;;3.88;;
50769;SDS011;36740;48.698;11.472;2022-11-10T18:13:36;9.90;;;5.63;;
50769;SDS011;36740;48.698;11.472;2022-11-10T18:16:25;6.65;;;3.45;;
50769;SDS011;36740;48.698;11.472;2022-11-10T18:19:19;7.43;;;4.47;;
50769;SDS011;36740;48.698;11.472;2022-11-10T18:22:04;8.10;;;4.30;;
50769;SDS011;36740;48.698;11.472;2022-11-10T18:24:51;7.53;;;3.97;;
50769;SDS011;36740;48.698;11.472;2022-11-10T18:27:37;7.45;;;3.72;;
50769;SDS011;36740;48.698;11.472;2022-11-10T18:33:13;13.80;;;4.80;;
50769;SDS011;36740;48.698;11.472;2022-11-10T18:35:59;7.85;;;4.18;;
50769;SDS011;36740;48.698;11.472;2022-11-10T18:38:48;9.43;;;4.15;;
50769;SDS011;36740;48.698;11.472;2022-11-10T18:41:34;6.15;;;4.45;;
50769;SDS011;36740;48.698;11.472;2022-11-10T18:44:39;7.43;;;4.95;;
50769;SDS011;36740;48.698;11.472;2022-11-10T18:47:25;6.40;;;4.90;;
50769;SDS011;36740;48.698;11.472;2022-11-10T18:50:11;7.07;;;4.22;;
50769;SDS011;36740;48.698;11.472;2022-11-10T18:52:57;6.00;;;3.63;;